createdAt,value
2022-08-08T00:01:08.885Z,16.50
2022-08-08T00:03:51.178Z,14.30
2022-08-08T00:06:36.388Z,19.47
2022-08-08T00:09:16.925Z,13.97
2022-08-08T00:12:07.320Z,11.70
2022-08-08T00:15:00.028Z,15.00
2022-08-08T00:18:01.601Z,16.83
2022-08-08T00:20:39.709Z,24.77
2022-08-08T00:23:14.597Z,17.40
2022-08-08T00:25:51.324Z,15.73
2022-08-08T00:28:35.880Z,16.40
2022-08-08T00:32:20.714Z,13.93
2022-08-08T00:35:03.967Z,17.13
2022-08-08T00:37:46.904Z,15.07
2022-08-08T00:41:10.275Z,13.23
2022-08-08T00:44:20.622Z,13.80
2022-08-08T00:48:05.430Z,13.40
2022-08-08T00:51:39.071Z,12.53
2022-08-08T00:55:06.356Z,12.30
2022-08-08T00:58:31.802Z,13.70
2022-08-08T01:01:15.901Z,14.53
2022-08-08T01:04:47.628Z,21.70
2022-08-08T01:08:11.786Z,14.83
2022-08-08T01:11:08.207Z,15.50
2022-08-08T01:14:53.157Z,14.13
2022-08-08T01:18:25.292Z,16.60
2022-08-08T01:22:12.443Z,15.17
2022-08-08T01:25:08.979Z,15.17
2022-08-08T01:28:11.242Z,14.53
2022-08-08T01:32:13.197Z,15.80
2022-08-08T01:35:11.362Z,16.73
2022-08-08T01:38:24.611Z,17.17
2022-08-08T01:41:10.043Z,14.63
2022-08-08T01:43:53.395Z,13.07
2022-08-08T01:46:47.369Z,17.27
2022-08-08T01:49:51.888Z,18.20
2022-08-08T01:55:16.433Z,17.63
2022-08-08T01:56:28.731Z,20.63
2022-08-08T01:59:07.763Z,15.67
2022-08-08T02:02:09.235Z,19.60
2022-08-08T02:04:58.776Z,14.60
2022-08-08T02:07:42.011Z,18.10
2022-08-08T02:10:47.093Z,16.07
2022-08-08T02:13:54.546Z,17.73
2022-08-08T02:16:28.176Z,19.37
2022-08-08T02:19:41.842Z,19.93
2022-08-08T02:22:28.225Z,19.00
2022-08-08T02:25:16.429Z,17.00
2022-08-08T02:27:55.085Z,20.73
2022-08-08T02:30:50.241Z,22.63
2022-08-08T02:34:08.805Z,20.50
2022-08-08T02:36:45.728Z,18.50
2022-08-08T02:39:59.992Z,19.80
2022-08-08T02:44:38.105Z,18.50
2022-08-08T02:46:59.441Z,19.67
2022-08-08T02:50:27.689Z,19.17
2022-08-08T02:53:32.705Z,19.17
2022-08-08T02:57:02.083Z,19.53
2022-08-08T03:00:29.802Z,20.57
2022-08-08T03:05:01.334Z,17.20
2022-08-08T03:07:19.529Z,18.23
2022-08-08T03:10:53.405Z,15.77
2022-08-08T03:16:04.028Z,17.67
2022-08-08T03:16:51.704Z,22.70
2022-08-08T03:20:08.228Z,20.03
2022-08-08T03:22:56.234Z,16.27
2022-08-08T03:25:35.789Z,15.63
2022-08-08T03:28:13.926Z,24.80
2022-08-08T03:30:49.353Z,22.30
2022-08-08T03:33:55.134Z,17.90
2022-08-08T03:36:30.575Z,15.30
2022-08-08T03:39:07.609Z,16.00
2022-08-08T03:42:28.407Z,16.03
2022-08-08T03:44:40.338Z,17.27
2022-08-08T03:47:22.824Z,16.13
2022-08-08T03:49:58.722Z,19.50
2022-08-08T03:52:33.917Z,19.00
2022-08-08T03:55:20.164Z,19.90
2022-08-08T03:58:31.721Z,20.47
2022-08-08T04:01:02.262Z,21.80
2022-08-08T04:03:58.126Z,26.10
2022-08-08T04:06:30.811Z,22.37
2022-08-08T04:09:10.389Z,23.37
2022-08-08T04:11:58.901Z,18.43
2022-08-08T04:14:50.735Z,20.83
2022-08-08T04:17:40.889Z,26.77
2022-08-08T04:20:10.568Z,22.57
2022-08-08T04:22:39.322Z,24.20
2022-08-08T04:25:13.057Z,22.13
2022-08-08T04:28:35.026Z,24.03
2022-08-08T04:30:36.684Z,22.23
2022-08-08T04:33:15.734Z,21.77
2022-08-08T04:35:51.035Z,19.73
2022-08-08T04:38:22.264Z,23.60
2022-08-08T04:40:54.696Z,23.80
2022-08-08T04:43:32.324Z,25.13
2022-08-08T04:46:19.304Z,23.00
2022-08-08T04:48:49.952Z,22.40
2022-08-08T04:51:23.553Z,24.23
2022-08-08T04:54:39.805Z,28.27
2022-08-08T04:56:56.423Z,33.87
2022-08-08T04:59:30.074Z,33.97
2022-08-08T05:02:00.930Z,34.57
2022-08-08T05:04:29.868Z,25.60
2022-08-08T05:06:58.568Z,26.30
2022-08-08T05:09:27.086Z,30.03
2022-08-08T05:11:58.174Z,19.83
2022-08-08T05:14:32.811Z,22.80
2022-08-08T05:17:10.662Z,24.50
2022-08-08T05:20:09.527Z,20.97
2022-08-08T05:22:34.828Z,22.70
2022-08-08T05:25:05.404Z,21.80
2022-08-08T05:27:41.433Z,20.03
2022-08-08T05:30:16.333Z,17.60
2022-08-08T05:32:50.964Z,19.30
2022-08-08T05:35:24.774Z,15.40
2022-08-08T05:38:01.766Z,18.20
2022-08-08T05:40:39.508Z,15.17
2022-08-08T05:43:17.123Z,13.83
2022-08-08T05:46:11.099Z,20.23
2022-08-08T05:48:42.567Z,13.63
2022-08-08T05:51:16.199Z,15.57
2022-08-08T05:54:24.402Z,11.50
2022-08-08T05:56:47.464Z,14.87
2022-08-08T06:00:00.866Z,11.93
2022-08-08T06:02:40.905Z,13.43
2022-08-08T06:05:34.671Z,12.13
2022-08-08T06:08:33.329Z,12.70
2022-08-08T06:11:07.171Z,14.30
2022-08-08T06:13:47.066Z,13.57
2022-08-08T06:16:27.371Z,12.03
2022-08-08T06:19:04.055Z,16.93
2022-08-08T06:21:51.440Z,11.90
2022-08-08T06:24:27.145Z,13.90
2022-08-08T06:27:06.407Z,16.30
2022-08-08T06:29:59.681Z,13.87
2022-08-08T06:32:38.251Z,11.83
2022-08-08T06:36:05.984Z,10.03
2022-08-08T06:38:09.141Z,13.60
2022-08-08T06:40:53.915Z,13.80
2022-08-08T06:43:33.967Z,9.83
2022-08-08T06:46:09.034Z,9.30
2022-08-08T06:48:39.585Z,9.20
2022-08-08T06:51:15.890Z,7.80
2022-08-08T06:53:51.361Z,5.67
2022-08-08T06:56:34.896Z,12.23
2022-08-08T06:59:09.778Z,11.17
2022-08-08T07:02:17.232Z,7.80
2022-08-08T07:04:49.796Z,9.40
2022-08-08T07:07:35.255Z,11.33
2022-08-08T07:10:08.767Z,8.87
2022-08-08T07:12:47.737Z,9.57
2022-08-08T07:16:03.521Z,8.93
2022-08-08T07:18:46.260Z,13.90
2022-08-08T07:21:24.635Z,9.40
2022-08-08T07:24:09.551Z,10.13
2022-08-08T07:26:50.771Z,6.03
2022-08-08T07:29:59.864Z,5.80
2022-08-08T07:32:15.725Z,6.53
2022-08-08T07:35:00.522Z,6.77
2022-08-08T07:37:56.283Z,7.30
2022-08-08T07:40:36.785Z,7.53
2022-08-08T07:43:12.466Z,8.43
2022-08-08T07:46:05.385Z,6.80
2022-08-08T07:48:37.769Z,8.80
2022-08-08T07:51:08.144Z,5.63
2022-08-08T07:54:06.309Z,10.90
2022-08-08T07:56:51.103Z,5.77
2022-08-08T07:59:22.426Z,7.23
2022-08-08T08:02:32.941Z,7.00
2022-08-08T08:04:54.150Z,5.60
2022-08-08T08:07:32.181Z,12.63
2022-08-08T08:10:12.599Z,6.40
2022-08-08T08:12:55.252Z,6.33
2022-08-08T08:15:32.151Z,5.80
2022-08-08T08:18:06.703Z,6.53
2022-08-08T08:20:44.105Z,5.33
2022-08-08T08:23:13.812Z,6.90
2022-08-08T08:25:55.204Z,4.23
2022-08-08T08:28:29.085Z,5.90
2022-08-08T08:31:04.828Z,3.60
2022-08-08T08:33:36.718Z,7.30
2022-08-08T08:36:18.826Z,4.43
2022-08-08T08:38:52.855Z,5.80
2022-08-08T08:41:31.140Z,2.70
2022-08-08T08:44:14.543Z,6.50
2022-08-08T08:46:50.808Z,5.13
2022-08-08T08:49:30.691Z,3.20
2022-08-08T08:52:04.817Z,4.43
2022-08-08T08:54:36.621Z,5.60
2022-08-08T08:57:15.797Z,4.60
2022-08-08T08:59:59.780Z,3.77
2022-08-08T09:02:37.287Z,4.23
2022-08-08T09:05:13.979Z,4.80
2022-08-08T09:08:12.589Z,6.90
2022-08-08T09:10:48.229Z,3.80
2022-08-08T09:13:25.164Z,3.93
2022-08-08T09:16:03.477Z,3.20
2022-08-08T09:18:35.843Z,4.00
2022-08-08T09:22:00.861Z,4.43
2022-08-08T09:23:54.536Z,5.60
2022-08-08T09:26:39.603Z,4.07
2022-08-08T09:29:22.439Z,4.80
2022-08-08T09:32:06.401Z,4.87
2022-08-08T09:34:52.478Z,6.60
2022-08-08T09:37:57.173Z,4.23
2022-08-08T09:40:40.900Z,6.67
2022-08-08T09:44:04.546Z,2.30
2022-08-08T09:46:25.174Z,3.20
2022-08-08T09:49:17.908Z,5.03
2022-08-08T09:52:01.557Z,3.43
2022-08-08T09:54:44.333Z,5.97
2022-08-08T09:57:19.158Z,5.27
2022-08-08T10:00:28.893Z,2.13
2022-08-08T10:02:45.736Z,3.87
2022-08-08T10:05:25.346Z,3.53
2022-08-08T10:07:59.979Z,4.37
2022-08-08T10:10:31.997Z,2.97
2022-08-08T10:13:14.331Z,4.10
2022-08-08T10:16:00.254Z,4.03
2022-08-08T10:18:33.025Z,4.37
2022-08-08T10:21:23.083Z,3.90
2022-08-08T10:24:04.998Z,2.97
2022-08-08T10:26:59.298Z,6.53
2022-08-08T10:29:59.288Z,3.80
2022-08-08T10:32:48.373Z,4.90
2022-08-08T10:36:08.923Z,3.20
2022-08-08T10:38:16.973Z,3.20
2022-08-08T10:40:53.096Z,3.60
2022-08-08T10:43:22.982Z,7.97
2022-08-08T10:45:56.032Z,6.77
2022-08-08T10:48:38.901Z,7.10
2022-08-08T10:51:24.215Z,7.17
2022-08-08T10:53:58.178Z,5.23
2022-08-08T10:56:32.568Z,5.53
2022-08-08T10:59:09.348Z,6.13
2022-08-08T11:01:39.939Z,3.80
2022-08-08T11:04:11.842Z,3.53
2022-08-08T11:06:41.881Z,2.53
2022-08-08T11:09:19.693Z,3.33
2022-08-08T11:12:05.537Z,3.60
2022-08-08T11:14:54.317Z,5.33
2022-08-08T11:17:58.339Z,4.20
2022-08-08T11:20:23.713Z,5.20
2022-08-08T11:22:59.041Z,4.20
2022-08-08T11:25:51.814Z,4.87
2022-08-08T11:28:30.518Z,3.20
2022-08-08T11:31:04.065Z,2.90
2022-08-08T11:33:52.902Z,3.30
2022-08-08T11:36:29.309Z,4.93
2022-08-08T11:38:58.512Z,2.87
2022-08-08T11:41:32.458Z,5.97
2022-08-08T11:44:03.848Z,2.87
2022-08-08T11:46:35.170Z,3.97
2022-08-08T11:49:11.442Z,5.30
2022-08-08T11:51:49.839Z,2.47
2022-08-08T11:54:33.855Z,6.13
2022-08-08T11:57:27.354Z,3.17
2022-08-08T12:00:01.283Z,4.27
2022-08-08T12:02:54.535Z,6.00
2022-08-08T12:05:34.094Z,3.73
2022-08-08T12:08:04.190Z,3.47
2022-08-08T12:10:36.295Z,3.23
2022-08-08T12:13:10.444Z,6.03
2022-08-08T12:15:49.033Z,5.30
2022-08-08T12:18:27.443Z,6.17
2022-08-08T12:20:59.711Z,4.77
2022-08-08T12:23:40.397Z,5.63
2022-08-08T12:26:27.924Z,4.03
2022-08-08T12:29:42.398Z,6.10
2022-08-08T12:32:20.758Z,2.77
2022-08-08T12:35:13.081Z,5.50
2022-08-08T12:37:48.140Z,6.23
2022-08-08T12:40:57.064Z,2.90
2022-08-08T12:43:43.777Z,3.20
2022-08-08T12:46:25.248Z,4.47
2022-08-08T12:49:25.774Z,5.33
2022-08-08T12:51:58.922Z,3.70
2022-08-08T12:54:36.543Z,5.90
2022-08-08T12:57:17.286Z,3.30
2022-08-08T13:00:05.990Z,3.20
2022-08-08T13:02:51.832Z,2.63
2022-08-08T13:05:26.807Z,2.67
2022-08-08T13:08:17.330Z,4.60
2022-08-08T13:10:56.692Z,6.63
2022-08-08T13:13:35.305Z,2.90
2022-08-08T13:16:20.057Z,3.97
2022-08-08T13:18:56.926Z,4.43
2022-08-08T13:21:49.033Z,2.37
2022-08-08T13:24:18.614Z,7.80
2022-08-08T13:27:11.933Z,2.67
2022-08-08T13:29:51.160Z,3.40
2022-08-08T13:32:25.233Z,5.13
2022-08-08T13:34:57.081Z,5.07
2022-08-08T13:37:52.164Z,3.63
2022-08-08T13:40:17.764Z,5.53
2022-08-08T13:42:55.107Z,5.83
2022-08-08T13:45:24.122Z,3.10
2022-08-08T13:47:58.470Z,2.70
2022-08-08T13:50:38.840Z,3.00
2022-08-08T13:53:25.163Z,4.30
2022-08-08T13:56:02.353Z,3.57
2022-08-08T13:58:31.326Z,4.40
2022-08-08T14:01:13.677Z,4.93
2022-08-08T14:03:55.298Z,2.47
2022-08-08T14:06:34.095Z,4.07
2022-08-08T14:09:24.973Z,4.87
2022-08-08T14:11:59.869Z,2.97
2022-08-08T14:14:40.703Z,4.03
2022-08-08T14:17:22.086Z,4.10
2022-08-08T14:19:57.303Z,4.60
2022-08-08T14:22:43.074Z,3.63
2022-08-08T14:25:15.243Z,6.53
2022-08-08T14:27:59.567Z,6.10
2022-08-08T14:30:35.635Z,3.60
2022-08-08T14:33:11.203Z,4.40
2022-08-08T14:35:44.022Z,4.47
2022-08-08T14:38:34.010Z,2.73
2022-08-08T14:41:18.570Z,2.50
2022-08-08T14:44:19.551Z,3.43
2022-08-08T14:47:00.216Z,6.93
2022-08-08T14:50:06.588Z,4.27
2022-08-08T14:52:26.854Z,3.50
2022-08-08T14:54:57.361Z,4.20
2022-08-08T14:58:03.005Z,3.10
2022-08-08T15:00:16.190Z,3.20
2022-08-08T15:02:59.112Z,4.70
2022-08-08T15:05:43.108Z,6.03
2022-08-08T15:08:35.007Z,5.47
2022-08-08T15:11:11.486Z,4.17
2022-08-08T15:14:01.847Z,3.83
2022-08-08T15:16:34.563Z,5.43
2022-08-08T15:19:05.209Z,3.87
2022-08-08T15:21:42.537Z,2.87
2022-08-08T15:24:14.317Z,2.90
2022-08-08T15:26:52.368Z,2.50
2022-08-08T15:29:22.680Z,4.00
2022-08-08T15:32:19.902Z,2.40
2022-08-08T15:34:41.347Z,3.07
2022-08-08T15:37:10.139Z,2.00
2022-08-08T15:39:41.441Z,2.30
2022-08-08T15:42:17.743Z,2.70
2022-08-08T15:44:59.707Z,6.63
2022-08-08T15:47:28.010Z,4.30
2022-08-08T15:49:59.966Z,1.60
2022-08-08T15:52:28.541Z,4.50
2022-08-08T15:54:57.258Z,3.03
2022-08-08T15:57:27.739Z,2.97
2022-08-08T16:00:25.899Z,3.27
2022-08-08T16:02:55.708Z,2.50
2022-08-08T16:05:35.420Z,3.73
2022-08-08T16:08:14.468Z,2.70
2022-08-08T16:13:09.455Z,3.50
2022-08-08T16:13:44.976Z,4.70
2022-08-08T16:16:17.855Z,4.00
2022-08-08T16:18:53.453Z,2.50
2022-08-08T16:21:29.036Z,3.57
2022-08-08T16:23:58.450Z,3.50
2022-08-08T16:26:34.798Z,2.43
2022-08-08T16:29:10.718Z,2.20
2022-08-08T16:31:49.017Z,4.07
2022-08-08T16:34:21.765Z,3.40
2022-08-08T16:36:50.943Z,3.00
2022-08-08T16:39:48.887Z,5.97
2022-08-08T16:42:17.808Z,1.77
2022-08-08T16:44:55.132Z,2.93
2022-08-08T16:47:31.512Z,3.53
2022-08-08T16:50:15.565Z,5.17
2022-08-08T16:55:06.021Z,4.40
2022-08-08T16:55:55.709Z,3.70
2022-08-08T16:58:31.713Z,2.93
2022-08-08T17:01:05.783Z,1.87
2022-08-08T17:04:00.043Z,5.03
2022-08-08T17:06:37.222Z,4.30
2022-08-08T17:09:14.671Z,4.17
2022-08-08T17:11:48.753Z,3.07
2022-08-08T17:14:27.367Z,2.50
2022-08-08T17:17:04.286Z,3.53
2022-08-08T17:19:37.393Z,3.00
2022-08-08T17:22:11.147Z,4.27
2022-08-08T17:24:40.966Z,7.53
2022-08-08T17:27:10.469Z,4.77
2022-08-08T17:29:43.827Z,3.37
2022-08-08T17:32:28.994Z,2.20
2022-08-08T17:35:53.894Z,11.63
2022-08-08T17:37:53.323Z,2.40
2022-08-08T17:40:22.347Z,1.97
2022-08-08T17:42:51.964Z,2.03
2022-08-08T17:45:23.328Z,3.47
2022-08-08T17:47:54.974Z,3.77
2022-08-08T17:50:25.197Z,3.10
2022-08-08T17:52:56.543Z,4.97
2022-08-08T17:56:06.728Z,1.63
2022-08-08T17:58:14.922Z,2.27
2022-08-08T18:00:43.273Z,2.07
2022-08-08T18:03:18.706Z,3.80
2022-08-08T18:05:51.109Z,3.67
2022-08-08T18:08:41.130Z,3.73
2022-08-08T18:11:15.013Z,2.60
2022-08-08T18:13:46.330Z,3.37
2022-08-08T18:16:20.967Z,1.83
2022-08-08T18:18:56.245Z,3.07
2022-08-08T18:21:59.749Z,2.80
2022-08-08T18:24:19.393Z,3.20
2022-08-08T18:26:53.707Z,3.10
2022-08-08T18:29:27.236Z,2.70
2022-08-08T18:31:59.484Z,2.70
2022-08-08T18:34:29.535Z,3.83
2022-08-08T18:37:04.604Z,2.37
2022-08-08T18:39:35.052Z,2.20
2022-08-08T18:42:13.032Z,1.57
2022-08-08T18:44:55.916Z,4.13
2022-08-08T18:47:27.428Z,3.10
2022-08-08T18:50:00.035Z,2.50
2022-08-08T18:52:30.519Z,3.70
2022-08-08T18:55:09.846Z,6.30
2022-08-08T18:57:43.517Z,3.17
2022-08-08T19:00:19.908Z,3.50
2022-08-08T19:02:56.774Z,6.60
2022-08-08T19:05:31.749Z,4.83
2022-08-08T19:08:25.521Z,5.30
2022-08-08T19:10:58.874Z,3.77
2022-08-08T19:13:53.338Z,4.53
2022-08-08T19:16:19.298Z,3.50
2022-08-08T19:18:59.975Z,3.60
2022-08-08T19:21:48.601Z,5.17
2022-08-08T19:24:38.869Z,2.63
2022-08-08T19:27:07.745Z,4.13
2022-08-08T19:29:42.468Z,3.13
2022-08-08T19:32:21.969Z,2.83
2022-08-08T19:34:51.792Z,2.03
2022-08-08T19:37:42.229Z,3.97
2022-08-08T19:40:16.059Z,2.17
2022-08-08T19:42:45.934Z,3.20
2022-08-08T19:45:57.280Z,2.83
2022-08-08T19:48:05.856Z,4.60
2022-08-08T19:50:38.389Z,4.37
2022-08-08T19:53:51.068Z,1.73
2022-08-08T19:55:56.609Z,4.17
2022-08-08T19:58:25.233Z,2.90
2022-08-08T20:00:57.717Z,2.73
2022-08-08T20:04:01.519Z,3.60
2022-08-08T20:06:18.035Z,6.20
2022-08-08T20:08:48.216Z,3.20
2022-08-08T20:11:18.647Z,6.23
2022-08-08T20:14:32.241Z,2.83
2022-08-08T20:16:41.756Z,4.20
2022-08-08T20:19:10.474Z,6.17
2022-08-08T20:21:39.726Z,5.50
2022-08-08T20:24:10.762Z,3.83
2022-08-08T20:26:41.620Z,3.60
2022-08-08T20:29:16.078Z,5.53
2022-08-08T20:31:47.095Z,2.63
2022-08-08T20:34:33.067Z,3.90
2022-08-08T20:37:06.240Z,4.20
2022-08-08T20:39:41.479Z,4.33
2022-08-08T20:42:23.853Z,3.23
2022-08-08T20:44:59.594Z,4.60
2022-08-08T20:47:36.580Z,7.33
2022-08-08T20:50:09.944Z,3.80
2022-08-08T20:52:39.990Z,6.17
2022-08-08T20:55:22.340Z,3.00
2022-08-08T20:57:51.569Z,3.50
2022-08-08T21:00:22.136Z,5.70
2022-08-08T21:02:52.660Z,2.90
2022-08-08T21:05:21.618Z,4.47
2022-08-08T21:08:34.418Z,3.00
2022-08-08T21:10:42.695Z,4.20
2022-08-08T21:13:11.446Z,3.17
2022-08-08T21:16:04.745Z,3.87
2022-08-08T21:18:28.495Z,3.17
2022-08-08T21:20:57.154Z,3.90
2022-08-08T21:24:02.159Z,3.93
2022-08-08T21:26:26.854Z,3.23
2022-08-08T21:29:00.553Z,3.83
2022-08-08T21:31:57.709Z,3.13
2022-08-08T21:34:19.029Z,3.33
2022-08-08T21:36:49.296Z,5.30
2022-08-08T21:39:18.645Z,3.23
2022-08-08T21:41:59.185Z,5.00
2022-08-08T21:44:27.840Z,3.57
2022-08-08T21:48:06.451Z,3.97
2022-08-08T21:49:44.526Z,3.77
2022-08-08T21:54:32.788Z,4.80
2022-08-08T21:55:04.512Z,3.53
2022-08-08T21:58:05.323Z,4.37
2022-08-08T22:00:40.619Z,5.70
2022-08-08T22:03:10.908Z,4.10
2022-08-08T22:05:43.921Z,2.97
2022-08-08T22:08:12.406Z,3.90
2022-08-08T22:10:43.184Z,4.83
2022-08-08T22:13:18.671Z,3.57
2022-08-08T22:15:58.741Z,3.73
2022-08-08T22:18:31.568Z,7.20
2022-08-08T22:21:14.032Z,5.07
2022-08-08T22:23:50.526Z,5.53
2022-08-08T22:26:28.711Z,5.10
2022-08-08T22:29:13.632Z,5.70
2022-08-08T22:32:00.462Z,9.13
2022-08-08T22:34:33.163Z,7.10
2022-08-08T22:37:15.103Z,6.10
2022-08-08T22:40:00.533Z,7.70
2022-08-08T22:42:32.042Z,8.13
2022-08-08T22:45:12.572Z,6.37
2022-08-08T22:47:47.375Z,7.60
2022-08-08T22:50:25.618Z,7.90
2022-08-08T22:53:22.438Z,12.40
2022-08-08T22:55:58.723Z,6.00
2022-08-08T22:58:32.972Z,8.00
2022-08-08T23:01:16.700Z,5.37
2022-08-08T23:03:55.529Z,6.40
2022-08-08T23:06:25.316Z,6.53
2022-08-08T23:08:55.668Z,8.57
2022-08-08T23:11:31.161Z,6.20
2022-08-08T23:14:17.411Z,7.27
2022-08-08T23:16:54.813Z,8.70
2022-08-08T23:19:27.010Z,7.67
2022-08-08T23:21:55.297Z,9.23
2022-08-08T23:24:23.815Z,12.10
2022-08-08T23:26:53.363Z,11.13
2022-08-08T23:29:27.120Z,9.80
2022-08-08T23:31:59.989Z,8.73
2022-08-08T23:34:31.016Z,10.77
2022-08-08T23:37:00.604Z,10.07
2022-08-08T23:39:41.831Z,7.63
2022-08-08T23:42:17.866Z,11.80
2022-08-08T23:44:50.445Z,8.77
2022-08-08T23:49:01.115Z,9.37
2022-08-08T23:50:30.192Z,7.87
2022-08-08T23:53:03.557Z,8.33
2022-08-08T23:55:42.007Z,11.60
2022-08-08T23:58:37.715Z,9.10
